To NAV CANADA Home Page Login to a new session Search on AWWS site Feedback and Comments Disclaimer Vers la page française équivalente Tips FAQ What's new on the site To the Forecasts and Observations / NOTAM section To "File a Flight Plan" website Publications and other links Update of the User's profile FIC Telephone Numbers My Weather Data Folder Route Weather Data Regional Weather Data Local Weather Data To the Forecasts and Observations / NOTAM section
Request Generated 07/28/2016 at 00:53:51 UTC . Weather information available at that time is displayed.

METAR/TAF

CAPE DORSET/NU    (show WxCam)

METAR CYTE 280000Z AUTO 09007KT 070V130 9SM CLR 09/04 A3012 RMK
SLP206=
METAR CYTE 272300Z AUTO 07006KT 9SM CLR 08/04 A3012 RMK SLP206=
METAR CYTE 272200Z AUTO 09007KT 9SM CLR 08/04 A3013 RMK SLP207=

TAF CYTE 280038Z 2801/2813 08010KT P6SM FEW140 SCT240
RMK FCST BASED ON AUTO OBS. NXT FCST BY 280700Z=
Your time UTC time
Weather data provided by Environment Canada and NAV CANADA